Time;durP1;ratioP1;P1;durP2;ratioP2;P2;SDS_P1;SDS_P2;PMS_P1;PMS_P2;Temp;Humidity;BMP_temperature;BMP_pressure;BME280_temperature;BME280_humidity;BME280_pressure;Samples;Min_cycle;Max_cycle;Signal;HPM_P1;HPM_P2
2021/11/07 00:04:00;;;;;;;18.75;9.82;;;29.40;84.10;;;;;;5134443;27;20031;-48
2021/11/07 00:06:33;;;;;;;15.05;9.05;;;29.30;83.90;;;;;;5145522;27;20110;-49
2021/11/07 00:11:40;;;;;;;12.90;8.40;;;29.30;83.70;;;;;;5145507;27;20015;-45
2021/11/07 00:14:09;;;;;;;15.60;8.27;;;29.30;83.50;;;;;;5145670;27;20019;-48
2021/11/07 00:16:37;;;;;;;13.05;8.30;;;29.30;83.20;;;;;;5145654;27;20314;-45
2021/11/07 00:19:10;;;;;;;15.65;8.05;;;29.30;83.20;;;;;;5145539;27;20091;-44
2021/11/07 00:22:06;;;;;;;13.70;8.30;;;29.30;83.00;;;;;;5145465;27;20078;-44
2021/11/07 00:27:17;;;;;;;11.88;8.30;;;29.30;82.60;;;;;;5145573;27;20052;-45
2021/11/07 00:30:32;;;;;;;18.15;8.68;;;29.30;82.50;;;;;;5145119;27;20204;-42
2021/11/07 00:33:13;;;;;;;16.95;8.90;;;29.20;82.50;;;;;;5139301;27;20190;-46
2021/11/07 00:38:18;;;;;;;13.93;8.82;;;29.20;82.20;;;;;;5146878;27;20057;-45
2021/11/07 00:40:57;;;;;;;16.75;8.88;;;29.20;82.10;;;;;;5145233;27;20087;-44
2021/11/07 00:43:36;;;;;;;18.38;9.25;;;29.20;82.00;;;;;;5145372;27;20083;-48
2021/11/07 00:46:52;;;;;;;16.23;8.90;;;29.20;82.00;;;;;;5145189;27;20053;-43
2021/11/07 00:49:09;;;;;;;15.55;9.25;;;29.20;82.10;;;;;;5137381;28;20111;-47
2021/11/07 00:57:14;;;;;;;19.33;8.02;;;29.10;81.90;;;;;;5145168;27;20019;-48
2021/11/07 00:59:38;;;;;;;15.48;8.52;;;29.10;81.80;;;;;;5145077;27;20307;-42
2021/11/07 01:02:14;;;;;;;18.25;8.93;;;29.10;81.80;;;;;;5145449;27;20035;-41
2021/11/07 01:04:45;;;;;;;17.23;8.88;;;29.10;81.80;;;;;;5145243;27;20030;-42
2021/11/07 01:07:13;;;;;;;14.63;9.07;;;29.10;81.70;;;;;;5144700;27;20019;-47
2021/11/07 01:09:39;;;;;;;14.43;8.40;;;29.10;81.50;;;;;;5145435;27;20015;-48
2021/11/07 01:12:07;;;;;;;14.32;8.20;;;29.10;81.50;;;;;;5144782;27;20027;-41
2021/11/07 01:14:34;;;;;;;12.45;8.05;;;29.10;81.60;;;;;;5143927;27;20030;-41
2021/11/07 01:17:01;;;;;;;13.23;8.13;;;29.10;81.60;;;;;;5148912;27;20019;-43
2021/11/07 01:19:28;;;;;;;12.98;7.65;;;29.00;81.40;;;;;;5148382;27;20019;-43
2021/11/07 01:21:58;;;;;;;16.33;8.38;;;29.00;81.40;;;;;;5147974;27;20298;-47
2021/11/07 01:24:31;;;;;;;12.88;8.00;;;29.00;81.40;;;;;;5149470;27;20050;-52
2021/11/07 01:29:45;;;;;;;17.85;7.72;;;29.00;81.30;;;;;;5148743;27;20019;-45
2021/11/07 01:32:13;;;;;;;21.30;7.72;;;29.00;81.30;;;;;;5148788;27;20238;-46
2021/11/07 01:35:01;;;;;;;16.58;7.57;;;29.00;81.40;;;;;;5148794;27;20110;-46
2021/11/07 01:37:33;;;;;;;15.18;7.82;;;29.00;81.20;;;;;;5148453;27;20019;-46
2021/11/07 01:42:35;;;;;;;19.48;8.25;;;28.90;81.10;;;;;;5148347;27;20007;-49
2021/11/07 01:45:10;;;;;;;17.50;7.53;;;28.90;81.10;;;;;;5147929;27;20262;-52
2021/11/07 01:47:43;;;;;;;20.73;8.30;;;28.90;81.00;;;;;;5148337;27;20031;-48
2021/11/07 01:50:11;;;;;;;16.95;7.03;;;28.90;81.00;;;;;;5147976;27;20054;-51
2021/11/07 01:52:41;;;;;;;11.80;7.32;;;28.90;81.00;;;;;;5129641;27;20019;-45
2021/11/07 01:55:19;;;;;;;11.90;6.90;;;28.90;80.90;;;;;;5148500;27;20055;-44
2021/11/07 01:57:49;;;;;;;12.38;8.15;;;28.90;80.80;;;;;;5147940;27;20019;-49
2021/11/07 02:00:25;;;;;;;13.30;8.38;;;28.90;80.70;;;;;;5148270;27;20027;-47
2021/11/07 02:02:52;;;;;;;15.68;9.25;;;28.90;80.70;;;;;;5147995;27;20374;-51
2021/11/07 02:05:19;;;;;;;15.02;9.95;;;28.90;80.80;;;;;;5148343;27;20042;-50
2021/11/07 02:07:46;;;;;;;17.98;12.02;;;28.80;80.70;;;;;;5148027;27;20050;-50
2021/11/07 02:10:16;;;;;;;21.85;12.73;;;28.90;80.80;;;;;;5147767;27;20030;-49
2021/11/07 02:12:43;;;;;;;18.77;11.48;;;28.80;80.70;;;;;;5147773;27;20037;-48
2021/11/07 02:15:14;;;;;;;20.25;11.57;;;28.80;80.50;;;;;;5147950;27;20291;-40
2021/11/07 02:17:41;;;;;;;21.08;10.88;;;28.80;80.50;;;;;;5147574;27;20015;-43
2021/11/07 02:20:12;;;;;;;15.95;9.40;;;28.80;80.50;;;;;;5147609;27;20055;-51
2021/11/07 02:22:40;;;;;;;20.20;9.90;;;28.80;80.50;;;;;;5147922;27;20015;-50
2021/11/07 02:25:08;;;;;;;13.50;9.98;;;28.80;80.30;;;;;;5147622;27;20039;-45
2021/11/07 02:27:38;;;;;;;14.13;9.30;;;28.80;80.40;;;;;;5146875;27;20019;-52
2021/11/07 02:30:07;;;;;;;12.55;9.23;;;28.80;80.20;;;;;;5147526;27;20030;-45
2021/11/07 02:32:33;;;;;;;13.55;8.52;;;28.70;80.00;;;;;;5128936;27;20027;-46
2021/11/07 02:35:00;;;;;;;12.60;7.88;;;28.70;79.80;;;;;;5147450;27;20093;-44
2021/11/07 02:37:27;;;;;;;12.20;8.00;;;28.70;79.70;;;;;;5146996;27;20015;-44
2021/11/07 02:39:54;;;;;;;10.63;7.97;;;28.70;80.20;;;;;;5147257;27;20031;-48
2021/11/07 02:42:20;;;;;;;14.23;8.50;;;28.70;79.40;;;;;;5147621;27;20078;-45
2021/11/07 02:44:48;;;;;;;12.50;7.82;;;28.70;79.40;;;;;;5147377;27;20117;-45
2021/11/07 02:47:17;;;;;;;10.18;7.22;;;28.70;79.40;;;;;;5147341;27;20199;-44
2021/11/07 02:49:45;;;;;;;10.70;7.10;;;28.70;79.20;;;;;;5128446;27;20118;-44
2021/11/07 02:52:14;;;;;;;11.93;7.43;;;28.70;79.00;;;;;;5128968;27;20023;-47
2021/11/07 02:54:41;;;;;;;12.60;7.75;;;28.70;79.10;;;;;;5147099;27;20033;-47
2021/11/07 02:57:10;;;;;;;13.70;8.45;;;28.70;79.00;;;;;;5147167;27;20307;-45
2021/11/07 02:59:40;;;;;;;13.40;8.60;;;28.70;79.10;;;;;;5146767;27;20064;-47
2021/11/07 03:02:09;;;;;;;18.38;9.80;;;28.60;79.00;;;;;;5146589;27;20086;-43
2021/11/07 03:04:37;;;;;;;14.18;9.30;;;28.70;79.10;;;;;;5146547;27;20094;-43
2021/11/07 03:07:05;;;;;;;19.33;9.38;;;28.60;79.00;;;;;;5146887;27;20037;-47
2021/11/07 03:09:34;;;;;;;16.17;10.07;;;28.60;79.10;;;;;;5146383;27;20082;-47
2021/11/07 03:12:03;;;;;;;15.98;9.30;;;28.60;79.20;;;;;;5146515;27;20331;-45
2021/11/07 03:14:36;;;;;;;12.57;8.68;;;28.60;79.50;;;;;;5146248;27;20019;-45
2021/11/07 03:17:05;;;;;;;12.20;8.93;;;28.60;79.40;;;;;;5146636;27;20019;-50
2021/11/07 03:19:32;;;;;;;17.63;10.15;;;28.60;79.50;;;;;;5146400;27;20011;-46
2021/11/07 03:22:01;;;;;;;13.45;9.25;;;28.60;79.60;;;;;;5146017;27;20329;-47
2021/11/07 03:24:29;;;;;;;15.77;9.07;;;28.60;79.90;;;;;;5146164;27;20247;-49
2021/11/07 03:26:57;;;;;;;15.10;9.60;;;28.60;79.90;;;;;;5146080;27;20324;-43
2021/11/07 03:29:32;;;;;;;20.33;8.65;;;28.60;80.00;;;;;;5146033;27;20030;-49
2021/11/07 03:32:13;;;;;;;15.05;8.63;;;28.60;80.00;;;;;;5146276;27;20018;-49
2021/11/07 03:34:49;;;;;;;11.80;7.72;;;28.60;80.10;;;;;;5146184;27;20324;-49
2021/11/07 03:37:28;;;;;;;13.60;7.93;;;28.50;80.10;;;;;;5146119;27;20058;-47
2021/11/07 03:39:58;;;;;;;10.15;7.75;;;28.50;79.80;;;;;;5145400;27;20030;-43
2021/11/07 03:42:28;;;;;;;13.35;7.25;;;28.50;79.90;;;;;;5127830;27;20026;-48
2021/11/07 03:44:55;;;;;;;14.52;7.35;;;28.50;79.60;;;;;;5145919;27;20050;-50
2021/11/07 03:47:22;;;;;;;11.77;7.35;;;28.50;79.50;;;;;;5146245;27;20027;-45
2021/11/07 03:49:49;;;;;;;16.17;6.53;;;28.50;79.40;;;;;;5145431;27;20068;-44
2021/11/07 03:52:16;;;;;;;16.80;7.05;;;28.50;79.40;;;;;;5127814;27;20027;-46
2021/11/07 03:54:44;;;;;;;13.10;7.30;;;28.40;79.30;;;;;;5145849;27;20018;-50
2021/11/07 03:57:12;;;;;;;10.77;6.45;;;28.40;79.10;;;;;;5127497;27;20019;-42
2021/11/07 03:59:45;;;;;;;11.23;6.57;;;28.40;79.10;;;;;;5125579;28;20330;-43
2021/11/07 04:02:14;;;;;;;14.38;7.18;;;28.40;79.00;;;;;;5139451;27;20027;-45
2021/11/07 04:04:41;;;;;;;15.43;7.43;;;28.40;79.00;;;;;;5145565;27;20011;-46
2021/11/07 04:07:09;;;;;;;16.50;9.10;;;28.40;79.00;;;;;;5145500;27;20077;-42
2021/11/07 04:09:36;;;;;;;14.48;9.13;;;28.40;78.90;;;;;;5127345;27;20123;-42
2021/11/07 04:12:03;;;;;;;14.80;8.02;;;28.40;79.40;;;;;;5145441;27;20019;-46
2021/11/07 04:14:33;;;;;;;11.00;8.10;;;28.40;79.00;;;;;;5145299;27;20015;-50
2021/11/07 04:17:02;;;;;;;10.82;7.38;;;28.30;79.00;;;;;;5145236;27;20072;-49
2021/11/07 04:19:28;;;;;;;10.98;6.28;;;28.30;79.10;;;;;;5145326;27;20052;-44
2021/11/07 04:22:00;;;;;;;9.35;6.35;;;28.40;79.60;;;;;;5145222;27;20027;-44
2021/11/07 04:24:26;;;;;;;11.20;6.20;;;28.30;78.90;;;;;;5145492;27;20043;-43
2021/11/07 04:26:53;;;;;;;9.65;6.13;;;28.40;79.00;;;;;;5145941;27;20034;-42
2021/11/07 04:29:20;;;;;;;10.90;6.57;;;28.30;78.90;;;;;;5127251;27;20057;-52
2021/11/07 04:31:46;;;;;;;8.95;6.03;;;28.30;78.80;;;;;;5145887;27;20023;-44
2021/11/07 04:34:13;;;;;;;7.85;5.88;;;28.30;78.80;;;;;;5145540;27;20030;-42
2021/11/07 04:36:40;;;;;;;12.50;6.30;;;28.30;78.60;;;;;;5145651;27;20023;-48
2021/11/07 04:39:06;;;;;;;10.65;6.20;;;28.30;78.50;;;;;;5145335;27;20061;-47
2021/11/07 04:41:33;;;;;;;10.38;6.20;;;28.30;78.60;;;;;;5145559;27;20195;-47
2021/11/07 04:44:00;;;;;;;9.02;5.80;;;28.30;78.40;;;;;;5144857;27;20072;-48
2021/11/07 04:46:27;;;;;;;7.93;5.70;;;28.30;78.40;;;;;;5145572;27;20215;-52
2021/11/07 04:48:54;;;;;;;11.10;6.07;;;28.30;78.40;;;;;;5144803;28;20038;-47
2021/11/07 04:51:20;;;;;;;9.63;5.43;;;28.20;78.30;;;;;;5144964;27;20319;-50
2021/11/07 04:53:47;;;;;;;10.63;5.78;;;28.20;78.50;;;;;;5145155;28;20238;-55
2021/11/07 04:56:14;;;;;;;9.30;5.22;;;28.20;78.60;;;;;;5145406;28;20023;-46
2021/11/07 04:58:43;;;;;;;8.55;5.55;;;28.20;78.50;;;;;;5144791;28;20011;-51
2021/11/07 05:01:10;;;;;;;10.73;6.00;;;28.20;78.60;;;;;;5145207;28;20034;-46
2021/11/07 05:03:37;;;;;;;8.32;5.40;;;28.20;78.50;;;;;;5144848;28;20026;-52
2021/11/07 05:06:04;;;;;;;8.70;5.40;;;28.20;78.50;;;;;;5145354;28;20212;-49
2021/11/07 05:08:30;;;;;;;7.45;5.28;;;28.10;78.40;;;;;;5145095;28;20364;-50
2021/11/07 05:10:57;;;;;;;8.02;5.30;;;28.20;78.60;;;;;;5145213;28;20321;-54
2021/11/07 05:13:24;;;;;;;7.05;5.40;;;28.10;78.60;;;;;;5144988;28;20079;-50
2021/11/07 05:15:50;;;;;;;8.40;5.18;;;28.10;78.60;;;;;;5145023;28;20116;-44
2021/11/07 05:18:19;;;;;;;9.65;5.53;;;28.10;78.60;;;;;;5144733;28;20059;-44
2021/11/07 05:20:48;;;;;;;7.00;5.30;;;28.10;78.60;;;;;;5144922;28;20370;-41
2021/11/07 05:23:14;;;;;;;9.05;5.05;;;28.10;78.70;;;;;;5144922;28;20238;-49
2021/11/07 05:25:41;;;;;;;8.30;5.72;;;28.10;78.70;;;;;;5145107;28;20031;-43
2021/11/07 05:28:09;;;;;;;7.72;5.13;;;28.10;78.80;;;;;;5144535;28;20023;-43
2021/11/07 05:30:36;;;;;;;8.65;5.00;;;28.10;79.00;;;;;;5144935;28;20030;-44
2021/11/07 05:33:04;;;;;;;7.35;5.40;;;28.10;79.20;;;;;;5144949;28;20014;-45
2021/11/07 05:35:31;;;;;;;6.63;5.10;;;28.10;79.30;;;;;;5144836;28;20027;-43
2021/11/07 05:37:57;;;;;;;7.95;5.03;;;28.10;79.40;;;;;;5144552;28;20026;-49
2021/11/07 05:40:24;;;;;;;8.68;5.20;;;28.10;79.50;;;;;;5126368;28;20026;-44
2021/11/07 05:42:51;;;;;;;15.52;5.93;;;28.00;79.60;;;;;;5144314;28;20038;-42
2021/11/07 05:45:18;;;;;;;11.20;6.20;;;28.00;79.60;;;;;;5144677;28;20027;-43
2021/11/07 05:47:45;;;;;;;9.38;6.95;;;28.00;79.20;;;;;;5144383;28;20019;-47
2021/11/07 05:50:13;;;;;;;11.27;6.68;;;28.00;79.20;;;;;;5144445;28;20328;-50
2021/11/07 05:52:41;;;;;;;14.65;6.82;;;28.00;79.10;;;;;;5144411;28;20019;-43
2021/11/07 05:55:08;;;;;;;14.65;6.55;;;28.00;79.00;;;;;;5144542;28;20091;-42
2021/11/07 05:57:35;;;;;;;9.90;5.90;;;28.00;79.00;;;;;;5144426;28;20211;-43
2021/11/07 06:00:03;;;;;;;9.75;6.28;;;28.00;78.80;;;;;;5144905;28;20383;-42
2021/11/07 06:02:30;;;;;;;10.90;5.57;;;28.00;78.60;;;;;;5145888;27;20038;-47
2021/11/07 06:04:57;;;;;;;10.32;6.47;;;28.00;78.50;;;;;;5147864;27;20248;-45
2021/11/07 06:07:23;;;;;;;11.25;5.93;;;28.00;78.50;;;;;;5148202;27;20060;-46
2021/11/07 06:09:50;;;;;;;10.05;5.78;;;27.90;78.40;;;;;;5147727;27;20023;-46
2021/11/07 06:12:16;;;;;;;7.75;5.65;;;27.90;78.40;;;;;;5147683;27;20022;-44
2021/11/07 06:14:44;;;;;;;10.23;5.35;;;27.90;78.50;;;;;;5147929;27;20026;-47
2021/11/07 06:17:12;;;;;;;8.20;5.70;;;27.90;78.50;;;;;;5148117;27;20023;-43
2021/11/07 06:19:39;;;;;;;9.60;5.65;;;27.90;78.60;;;;;;5147534;27;20027;-44
2021/11/07 06:22:06;;;;;;;11.40;5.65;;;27.90;78.60;;;;;;5147925;27;20374;-45
2021/11/07 06:24:32;;;;;;;10.63;5.25;;;27.90;78.80;;;;;;5147587;27;20019;-43
2021/11/07 06:27:01;;;;;;;9.75;5.10;;;27.90;78.70;;;;;;5147482;27;20029;-46
2021/11/07 06:29:28;;;;;;;8.85;5.13;;;27.90;78.70;;;;;;5147463;27;20030;-43
2021/11/07 06:31:56;;;;;;;6.32;5.07;;;27.90;78.70;;;;;;5147574;27;20023;-50
2021/11/07 06:34:24;;;;;;;7.32;5.30;;;27.80;78.50;;;;;;5147307;27;20008;-46
2021/11/07 06:36:52;;;;;;;11.73;5.53;;;27.90;78.60;;;;;;5147835;27;20050;-44
2021/11/07 06:39:19;;;;;;;8.98;5.03;;;27.80;78.50;;;;;;5147535;27;20022;-45
2021/11/07 06:41:47;;;;;;;9.32;5.40;;;27.80;78.50;;;;;;5147489;27;20023;-44
2021/11/07 06:44:14;;;;;;;7.63;5.45;;;27.80;78.50;;;;;;5147381;27;20072;-43
2021/11/07 06:46:42;;;;;;;8.48;5.13;;;27.80;78.60;;;;;;5147527;27;20053;-43
2021/11/07 06:49:12;;;;;;;8.63;5.35;;;27.80;78.50;;;;;;5146857;27;20039;-44
2021/11/07 06:51:40;;;;;;;7.97;5.28;;;27.80;78.30;;;;;;5147700;27;20019;-44
2021/11/07 06:54:07;;;;;;;10.80;5.75;;;27.80;78.20;;;;;;5128987;27;20052;-43
2021/11/07 06:56:34;;;;;;;9.55;6.13;;;27.80;78.20;;;;;;5147394;27;20027;-46
2021/11/07 06:59:01;;;;;;;11.23;6.78;;;27.80;78.30;;;;;;5147200;27;20031;-44
2021/11/07 07:01:28;;;;;;;8.65;6.18;;;27.80;78.20;;;;;;5147101;27;20030;-46
2021/11/07 07:03:55;;;;;;;8.38;6.43;;;27.80;78.30;;;;;;5146785;27;20271;-42
2021/11/07 07:06:22;;;;;;;7.75;6.10;;;27.80;78.20;;;;;;5146975;27;20027;-47
2021/11/07 07:11:22;;;;;;;8.20;6.10;;;27.80;78.10;;;;;;5147182;27;20062;-43
2021/11/07 07:13:56;;;;;;;10.52;6.07;;;27.80;78.20;;;;;;5146598;27;20082;-48
2021/11/07 07:21:46;;;;;;;9.43;5.95;;;27.70;78.10;;;;;;5147022;27;20061;-43
2021/11/07 07:35:05;;;;;;;8.55;6.28;;;27.70;78.00;;;;;;5146389;27;20056;-41
2021/11/07 07:37:32;;;;;;;9.70;6.25;;;27.70;78.00;;;;;;5146142;27;20046;-48
2021/11/07 07:39:59;;;;;;;10.18;5.75;;;27.70;78.00;;;;;;5127769;27;20033;-42
2021/11/07 07:42:26;;;;;;;10.02;6.15;;;27.70;78.00;;;;;;5146187;27;20379;-43
2021/11/07 07:44:53;;;;;;;7.40;5.45;;;27.70;78.00;;;;;;5146239;27;20027;-45
2021/11/07 07:47:20;;;;;;;7.20;5.53;;;27.70;78.00;;;;;;5145966;27;20315;-44
2021/11/07 07:49:51;;;;;;;8.60;5.55;;;27.70;78.00;;;;;;5145772;27;20083;-44
2021/11/07 07:52:21;;;;;;;9.82;5.57;;;27.70;78.00;;;;;;5145896;27;20091;-51
2021/11/07 07:54:48;;;;;;;7.65;5.25;;;27.70;78.00;;;;;;5145928;27;20074;-45
2021/11/07 07:57:15;;;;;;;10.23;5.30;;;27.70;78.20;;;;;;5145966;27;20204;-43
2021/11/07 07:59:42;;;;;;;8.82;5.07;;;27.70;78.10;;;;;;5147433;27;20027;-46
2021/11/07 08:02:09;;;;;;;8.55;5.00;;;27.70;78.20;;;;;;5145536;27;20038;-52
2021/11/07 08:04:36;;;;;;;10.43;5.00;;;27.70;78.30;;;;;;5145861;27;20046;-51
2021/11/07 08:07:02;;;;;;;7.75;5.38;;;27.60;78.20;;;;;;5145503;27;20207;-51
2021/11/07 08:09:29;;;;;;;7.30;4.53;;;27.60;78.10;;;;;;5145731;27;20329;-45
2021/11/07 08:11:56;;;;;;;6.85;4.88;;;27.70;78.20;;;;;;5145522;27;20030;-50
2021/11/07 08:14:23;;;;;;;5.90;4.43;;;27.60;78.10;;;;;;5145311;27;20015;-52
2021/11/07 08:16:50;;;;;;;7.10;4.55;;;27.60;78.20;;;;;;5145571;27;20398;-56
2021/11/07 08:19:17;;;;;;;6.10;4.88;;;27.60;78.10;;;;;;5127243;27;20038;-44
2021/11/07 08:21:43;;;;;;;6.47;5.03;;;27.60;78.00;;;;;;5145349;27;20091;-42
2021/11/07 08:24:12;;;;;;;7.53;5.32;;;27.60;78.00;;;;;;5145320;27;20019;-46
2021/11/07 08:26:41;;;;;;;7.47;4.82;;;27.60;78.00;;;;;;5145081;27;20021;-49
2021/11/07 08:29:11;;;;;;;8.00;5.45;;;27.60;78.00;;;;;;5145250;27;20025;-43
2021/11/07 08:31:38;;;;;;;9.23;5.10;;;27.60;77.90;;;;;;5145162;27;20299;-43
2021/11/07 08:34:06;;;;;;;6.90;4.60;;;27.60;77.90;;;;;;5145148;27;20338;-43
2021/11/07 08:36:57;;;;;;;5.80;4.50;;;27.60;77.60;;;;;;5144919;27;20018;-47
2021/11/07 08:39:30;;;;;;;7.88;4.97;;;27.60;77.60;;;;;;5144752;27;20026;-43
2021/11/07 09:01:13;;;;;;;5.38;4.43;;;27.50;77.20;;;;;;5144923;28;20019;-41
2021/11/07 09:06:45;;;;;;;5.88;4.50;;;27.40;77.00;;;;;;5144800;28;20042;-44
2021/11/07 09:09:14;;;;;;;7.70;4.57;;;27.50;77.00;;;;;;5144452;28;20035;-43
2021/11/07 09:11:57;;;;;;;6.78;4.50;;;27.40;76.90;;;;;;5144735;28;20011;-45
2021/11/07 09:14:37;;;;;;;6.38;4.53;;;27.40;76.90;;;;;;5144504;28;20033;-46
2021/11/07 09:17:10;;;;;;;6.95;4.40;;;27.40;76.90;;;;;;5144743;28;20023;-44
2021/11/07 09:19:38;;;;;;;9.43;4.20;;;27.40;76.70;;;;;;5144590;28;20096;-45
2021/11/07 09:22:13;;;;;;;5.75;4.78;;;27.40;76.70;;;;;;5144628;28;20031;-42
2021/11/07 09:27:25;;;;;;;7.70;4.53;;;27.40;76.50;;;;;;5144654;28;20038;-45
2021/11/07 09:33:43;;;;;;;7.28;4.40;;;27.40;76.50;;;;;;5099061;28;20086;-41
2021/11/07 09:38:29;;;;;;;;;;;27.40;76.50;;;;;;5148087;27;20020;-44
2021/11/07 09:41:09;;;;;;;6.27;4.10;;;27.40;76.40;;;;;;5148446;27;19907;-43
2021/11/07 09:43:42;;;;;;;5.70;4.35;;;27.40;76.40;;;;;;5148679;27;20041;-45
2021/11/07 09:46:18;;;;;;;5.57;3.40;;;27.30;76.30;;;;;;5148739;27;20045;-46
2021/11/07 09:48:51;;;;;;;5.30;3.22;;;27.30;76.40;;;;;;5147902;27;20043;-43
2021/11/07 09:51:20;;;;;;;6.85;4.05;;;27.30;76.40;;;;;;5148175;27;20019;-44
2021/11/07 09:53:55;;;;;;;8.00;3.85;;;27.30;76.40;;;;;;5148480;27;20030;-42
2021/11/07 09:56:23;;;;;;;7.07;3.55;;;27.30;76.30;;;;;;5148570;27;20046;-47
2021/11/07 09:58:52;;;;;;;4.43;3.58;;;27.30;76.20;;;;;;5148582;27;20066;-45
2021/11/07 10:01:20;;;;;;;4.10;3.67;;;27.30;76.20;;;;;;5147947;27;20207;-44
2021/11/07 10:03:47;;;;;;;7.13;4.20;;;27.30;76.30;;;;;;5148300;27;20122;-50
2021/11/07 10:06:26;;;;;;;5.50;3.72;;;27.30;76.30;;;;;;5147852;27;20019;-50
2021/11/07 10:08:53;;;;;;;4.70;3.75;;;27.30;76.30;;;;;;5139610;27;20035;-55
2021/11/07 10:11:20;;;;;;;8.05;3.67;;;27.30;76.30;;;;;;5147768;27;20022;-42
2021/11/07 10:14:04;;;;;;;8.27;4.05;;;27.30;76.30;;;;;;5148179;27;20031;-49
2021/11/07 10:16:49;;;;;;;4.72;3.47;;;27.30;76.30;;;;;;5147421;27;20065;-49
2021/11/07 10:21:55;;;;;;;7.50;3.83;;;27.20;76.20;;;;;;5147490;27;20031;-49
2021/11/07 10:24:29;;;;;;;6.72;3.83;;;27.20;76.00;;;;;;5147643;27;20019;-47
2021/11/07 10:27:00;;;;;;;6.80;4.03;;;27.20;76.40;;;;;;5147315;27;20023;-55
2021/11/07 10:29:37;;;;;;;5.10;3.65;;;27.20;75.90;;;;;;5147474;27;20029;-51
2021/11/07 10:40:10;;;;;;;4.55;3.97;;;27.20;76.10;;;;;;5147488;27;20047;-53
2021/11/07 10:45:57;;;;;;;8.10;3.72;;;27.20;76.10;;;;;;5147266;27;20376;-57
2021/11/07 10:54:27;;;;;;;7.03;4.18;;;27.20;76.50;;;;;;5147102;27;20026;-55
2021/11/07 10:57:17;;;;;;;8.52;4.15;;;27.10;76.70;;;;;;5146977;27;20019;-55
2021/11/07 11:00:21;;;;;;;5.57;3.92;;;27.10;76.80;;;;;;5146748;27;20019;-53
2021/11/07 11:02:50;;;;;;;8.00;4.70;;;27.20;77.00;;;;;;5146920;27;20046;-52
2021/11/07 11:05:20;;;;;;;7.30;4.10;;;27.10;77.10;;;;;;5146853;27;20082;-52
2021/11/07 11:07:57;;;;;;;8.48;4.35;;;27.10;77.20;;;;;;5146941;27;20253;-53
2021/11/07 11:10:32;;;;;;;6.97;4.40;;;27.20;77.50;;;;;;5146664;27;20089;-52
2021/11/07 11:13:21;;;;;;;11.95;5.03;;;27.20;77.60;;;;;;5146952;27;20095;-52
2021/11/07 11:16:00;;;;;;;8.35;5.05;;;27.20;77.90;;;;;;5146507;27;20258;-52
2021/11/07 11:18:44;;;;;;;10.45;5.30;;;27.20;77.90;;;;;;5128209;27;20123;-50
2021/11/07 11:26:47;;;;;;;14.15;5.65;;;27.20;78.00;;;;;;5146342;27;20023;-52
2021/11/07 11:32:10;;;;;;;13.10;5.20;;;27.20;78.10;;;;;;5146194;27;20042;-44
2021/11/07 11:34:42;;;;;;;9.23;5.30;;;27.20;78.00;;;;;;5146046;27;20094;-45
2021/11/07 11:37:22;;;;;;;8.48;5.55;;;27.20;78.10;;;;;;5146358;27;20034;-52
2021/11/07 11:40:18;;;;;;;14.02;5.40;;;27.20;78.10;;;;;;5145863;27;20026;-48
2021/11/07 11:42:49;;;;;;;17.33;5.90;;;27.30;78.30;;;;;;5145636;27;20043;-54
2021/11/07 11:45:30;;;;;;;13.18;6.30;;;27.30;78.40;;;;;;5146034;27;20246;-44
2021/11/07 11:48:32;;;;;;;11.35;5.53;;;27.30;78.50;;;;;;5146857;27;20068;-45
2021/11/07 11:57:28;;;;;;;14.63;5.75;;;27.40;78.80;;;;;;5103800;27;20311;-46
2021/11/07 12:00:16;;;;;;;;;;;27.40;78.90;;;;;;5142460;27;20311;-42
2021/11/07 12:05:47;;;;;;;11.35;5.28;;;27.40;79.10;;;;;;5103682;27;20023;-39
2021/11/07 12:08:18;;;;;;;10.00;6.25;;;27.50;79.20;;;;;;5145738;27;20090;-40
2021/11/07 12:11:00;;;;;;;14.03;5.60;;;27.50;79.20;;;;;;5145595;27;20011;-40
2021/11/07 12:16:37;;;;;;;9.10;5.50;;;27.60;79.40;;;;;;5145425;27;20248;-49
2021/11/07 12:19:05;;;;;;;11.73;5.55;;;27.60;79.30;;;;;;5145278;27;20031;-45
2021/11/07 12:21:56;;;;;;;10.20;5.10;;;27.60;79.40;;;;;;5145120;27;20023;-48
2021/11/07 12:24:27;;;;;;;12.02;5.00;;;27.60;79.50;;;;;;5145330;27;20060;-45
2021/11/07 12:27:16;;;;;;;19.05;5.72;;;27.70;79.70;;;;;;5144969;27;20046;-46
2021/11/07 12:29:44;;;;;;;74.60;9.90;;;27.70;79.70;;;;;;5125594;27;20068;-44
2021/11/07 12:32:12;;;;;;;52.90;8.57;;;27.70;79.70;;;;;;5145149;27;20026;-46
2021/11/07 12:35:22;;;;;;;45.47;8.02;;;27.70;79.70;;;;;;5145277;27;20319;-44
2021/11/07 12:40:58;;;;;;;49.60;8.00;;;27.80;80.00;;;;;;5144821;27;20018;-49
2021/11/07 12:43:32;;;;;;;30.20;7.13;;;27.80;79.90;;;;;;5145348;27;20023;-45
2021/11/07 12:46:19;;;;;;;21.35;7.10;;;27.80;80.00;;;;;;5144859;27;20020;-49
2021/11/07 12:48:49;;;;;;;28.95;7.15;;;27.80;80.20;;;;;;5145018;27;20051;-47
2021/11/07 12:51:22;;;;;;;32.15;6.65;;;27.80;80.20;;;;;;5144675;27;20007;-48
2021/11/07 12:53:57;;;;;;;19.23;6.30;;;27.90;80.30;;;;;;5145275;28;20023;-49
2021/11/07 12:56:44;;;;;;;20.65;6.43;;;27.90;80.40;;;;;;5126879;28;20015;-45
2021/11/07 12:59:18;;;;;;;22.98;6.45;;;27.90;80.50;;;;;;5144832;28;20031;-45
2021/11/07 13:02:23;;;;;;;21.88;6.18;;;27.90;80.50;;;;;;5144680;27;20090;-40
2021/11/07 13:05:04;;;;;;;19.20;6.25;;;27.90;80.60;;;;;;5130754;28;20035;-40
2021/11/07 13:07:49;;;;;;;19.60;6.45;;;27.90;80.60;;;;;;5144676;28;20019;-44
2021/11/07 13:10:28;;;;;;;15.02;6.63;;;28.00;80.70;;;;;;5144599;28;20038;-45
2021/11/07 13:13:26;;;;;;;14.18;5.65;;;28.00;80.70;;;;;;5149217;27;20011;-51
2021/11/07 13:16:04;;;;;;;22.08;6.13;;;28.00;80.80;;;;;;5148100;27;20050;-46
2021/11/07 13:21:21;;;;;;;13.77;6.13;;;28.10;80.90;;;;;;5148675;27;20335;-47
2021/11/07 13:24:12;;;;;;;12.82;6.43;;;28.10;80.80;;;;;;5148817;27;20095;-48
2021/11/07 13:32:30;;;;;;;12.23;5.65;;;28.10;80.90;;;;;;5148340;27;20007;-47
2021/11/07 13:35:12;;;;;;;13.15;6.45;;;28.10;80.90;;;;;;5133405;27;20304;-43
2021/11/07 13:37:52;;;;;;;14.35;5.78;;;28.10;80.90;;;;;;5147888;27;20031;-51
2021/11/07 13:40:28;;;;;;;13.05;5.57;;;28.20;81.00;;;;;;5148583;27;20203;-46
2021/11/07 13:43:09;;;;;;;12.93;5.65;;;28.20;81.00;;;;;;5148359;27;20023;-47
2021/11/07 13:45:40;;;;;;;11.73;5.45;;;28.20;81.10;;;;;;5148209;27;20026;-50
2021/11/07 13:48:17;;;;;;;12.02;5.40;;;28.20;81.10;;;;;;5147637;27;20023;-43
2021/11/07 13:50:44;;;;;;;8.70;5.60;;;28.30;81.20;;;;;;5148122;27;20021;-41
2021/11/07 13:53:40;;;;;;;11.43;5.45;;;28.30;81.00;;;;;;5148557;27;20068;-44
2021/11/07 13:56:10;;;;;;;10.85;5.60;;;28.30;80.70;;;;;;5147814;27;20050;-47
2021/11/07 13:58:40;;;;;;;13.40;5.70;;;28.30;80.70;;;;;;5148233;27;20027;-44
2021/11/07 14:01:12;;;;;;;10.80;5.40;;;28.30;80.80;;;;;;5148158;27;20068;-48
2021/11/07 14:03:41;;;;;;;13.73;5.28;;;28.30;80.80;;;;;;5148426;27;20050;-45
2021/11/07 14:06:12;;;;;;;12.00;5.50;;;28.40;80.90;;;;;;5148254;27;20337;-43
2021/11/07 14:09:01;;;;;;;9.68;5.07;;;28.40;80.80;;;;;;5147985;27;20034;-41
2021/11/07 14:11:28;;;;;;;10.02;4.90;;;28.40;80.80;;;;;;5148006;27;20019;-42
2021/11/07 14:13:59;;;;;;;9.60;5.35;;;28.40;80.80;;;;;;5147771;27;20090;-50
2021/11/07 14:16:41;;;;;;;11.45;5.25;;;28.40;80.70;;;;;;5147663;27;20082;-47
2021/11/07 14:19:10;;;;;;;10.98;5.35;;;28.40;80.70;;;;;;5147676;27;20094;-45
2021/11/07 14:21:41;;;;;;;7.05;4.72;;;28.40;80.60;;;;;;5147580;27;20031;-50
2021/11/07 14:24:22;;;;;;;8.75;4.80;;;28.40;80.70;;;;;;5146616;27;20031;-49
2021/11/07 14:26:55;;;;;;;13.35;5.38;;;28.40;80.70;;;;;;5147764;27;20086;-50
2021/11/07 14:29:42;;;;;;;12.20;5.30;;;28.40;80.80;;;;;;5147304;27;20238;-45
2021/11/07 14:32:19;;;;;;;9.82;5.47;;;28.40;80.80;;;;;;5147400;27;20069;-48
2021/11/07 14:35:17;;;;;;;15.38;5.95;;;28.40;80.80;;;;;;5147348;27;20019;-46
2021/11/07 14:40:26;;;;;;;11.00;5.82;;;28.50;80.80;;;;;;5147288;27;20011;-45
2021/11/07 14:51:30;;;;;;;14.73;5.82;;;28.50;80.70;;;;;;5130271;27;20011;-47
2021/11/07 14:59:24;;;;;;;8.90;5.43;;;28.60;80.70;;;;;;5125111;28;20024;-48
2021/11/07 15:02:02;;;;;;;;;;;28.60;80.70;;;;;;5146768;27;20023;-51
2021/11/07 15:04:39;;;;;;;11.32;5.35;;;28.60;80.60;;;;;;5146516;27;20229;-54
2021/11/07 15:07:11;;;;;;;12.52;5.47;;;28.60;80.60;;;;;;5128264;27;20157;-50
2021/11/07 15:19:01;;;;;;;11.50;5.60;;;28.60;80.50;;;;;;5132278;27;20019;-46
2021/11/07 15:21:28;;;;;;;9.45;5.25;;;28.70;80.40;;;;;;5142433;27;20082;-41
2021/11/07 15:24:07;;;;;;;14.57;5.40;;;28.70;80.40;;;;;;5146308;27;20211;-42
2021/11/07 15:26:46;;;;;;;7.63;5.10;;;28.70;80.10;;;;;;5146172;27;20075;-49
2021/11/07 15:29:16;;;;;;;8.60;5.85;;;28.70;80.10;;;;;;5146137;27;20055;-49
2021/11/07 15:31:46;;;;;;;10.27;5.32;;;28.70;80.10;;;;;;5146402;27;20015;-52
2021/11/07 15:34:33;;;;;;;7.50;5.05;;;28.70;80.10;;;;;;5146103;27;20016;-44